Time;durP1;ratioP1;P1;durP2;ratioP2;P2;SDS_P1;SDS_P2;PMS_P1;PMS_P2;Temp;Humidity;BMP_temperature;BMP_pressure;BME280_temperature;BME280_humidity;BME280_pressure;Samples;Min_cycle;Max_cycle;Signal;HPM_P1;HPM_P2
2021/06/04 00:00:32;;;;;;;13.20;11.83;;;19.30;99.90;;;;;;4969764;28;20459;-74
2021/06/04 00:03:02;;;;;;;16.70;11.03;;;19.20;99.90;;;;;;4979199;28;20512;-74
2021/06/04 00:05:32;;;;;;;11.07;9.97;;;19.20;99.90;;;;;;4972947;28;20464;-74
2021/06/04 00:07:57;;;;;;;14.00;12.20;;;19.20;99.90;;;;;;4973411;28;20559;-75
2021/06/04 00:10:31;;;;;;;12.50;11.20;;;19.20;99.90;;;;;;4975943;28;21818;-74
2021/06/04 00:13:17;;;;;;;15.50;12.00;;;19.10;99.90;;;;;;4973893;28;20729;-74
2021/06/04 00:15:44;;;;;;;13.17;11.87;;;19.00;99.90;;;;;;4973703;28;20475;-74
2021/06/04 00:18:10;;;;;;;14.67;13.27;;;19.00;99.90;;;;;;4974665;28;20531;-74
2021/06/04 00:20:35;;;;;;;15.40;13.80;;;18.90;99.90;;;;;;4970289;28;20457;-74
2021/06/04 00:23:05;;;;;;;15.27;13.73;;;18.90;99.90;;;;;;4977837;28;20439;-74
2021/06/04 00:25:31;;;;;;;14.50;12.87;;;18.90;99.90;;;;;;4970730;28;20177;-74
2021/06/04 00:27:57;;;;;;;18.30;13.23;;;18.80;99.90;;;;;;4974512;28;20509;-74
2021/06/04 00:30:24;;;;;;;13.87;12.57;;;18.70;99.90;;;;;;4972731;28;20492;-74
2021/06/04 00:32:50;;;;;;;16.30;13.63;;;18.70;99.90;;;;;;4968294;28;20446;-74
2021/06/04 00:35:16;;;;;;;15.87;14.00;;;18.70;1.00;;;;;;4970373;28;20580;-74
2021/06/04 00:37:42;;;;;;;16.20;13.30;;;18.70;1.00;;;;;;4973027;28;20560;-74
2021/06/04 00:40:13;;;;;;;18.23;16.40;;;18.70;1.00;;;;;;4973528;28;20542;-74
2021/06/04 00:42:41;;;;;;;19.30;15.80;;;18.80;99.90;;;;;;4972529;28;20923;-75
2021/06/04 00:45:10;;;;;;;17.00;14.43;;;18.80;99.90;;;;;;4975789;28;20965;-74
2021/06/04 00:47:37;;;;;;;17.60;15.67;;;18.80;99.90;;;;;;4972383;28;20909;-74
2021/06/04 00:50:08;;;;;;;16.40;13.70;;;18.80;99.90;;;;;;4973219;28;20455;-74
2021/06/04 00:52:37;;;;;;;15.77;14.17;;;18.80;20.80;;;;;;4975877;28;20447;-73
2021/06/04 00:55:08;;;;;;;16.10;14.50;;;18.70;99.90;;;;;;4971011;28;20471;-74
2021/06/04 00:57:35;;;;;;;15.67;14.07;;;18.70;1.00;;;;;;4972003;28;20469;-74
2021/06/04 01:00:03;;;;;;;15.10;13.60;;;18.70;99.90;;;;;;4973502;28;20450;-75
2021/06/04 01:02:33;;;;;;;19.17;13.87;;;18.60;99.90;;;;;;4975709;28;20445;-74
2021/06/04 01:05:00;;;;;;;16.17;14.57;;;18.50;1.00;;;;;;4969360;28;20467;-74
2021/06/04 01:07:38;;;;;;;15.90;14.30;;;18.50;1.00;;;;;;4982362;28;20458;-74
2021/06/04 01:10:21;;;;;;;15.43;13.90;;;18.50;99.90;;;;;;4970420;28;20185;-73
2021/06/04 01:13:26;;;;;;;16.43;14.83;;;18.40;1.00;;;;;;4968271;28;20459;-74
2021/06/04 01:16:05;;;;;;;16.17;14.50;;;18.50;99.90;;;;;;4992069;28;20541;-74
2021/06/04 01:18:46;;;;;;;17.33;15.43;;;18.70;99.90;;;;;;4994418;28;20467;-74
2021/06/04 01:21:33;;;;;;;16.50;14.80;;;18.70;1.00;;;;;;4983666;28;20520;-74
2021/06/04 01:24:35;;;;;;;17.07;15.27;;;18.70;1.00;;;;;;4980266;28;20497;-74
2021/06/04 01:27:22;;;;;;;16.33;14.73;;;18.70;1.00;;;;;;4969619;28;20441;-74
2021/06/04 01:29:59;;;;;;;18.57;15.00;;;18.70;1.00;;;;;;4973410;28;20537;-74
2021/06/04 01:32:28;;;;;;;16.73;15.00;;;18.70;1.00;;;;;;4968330;28;21106;-75
2021/06/04 01:35:04;;;;;;;15.77;14.27;;;18.70;1.00;;;;;;4967531;28;20481;-75
2021/06/04 01:37:32;;;;;;;19.27;15.07;;;18.70;1.00;;;;;;4969536;28;20543;-75
2021/06/04 01:40:15;;;;;;;16.30;14.70;;;18.70;1.00;;;;;;4969675;28;20450;-75
2021/06/04 01:42:46;;;;;;;17.07;15.40;;;18.70;1.00;;;;;;4976731;28;20456;-75
2021/06/04 01:45:34;;;;;;;16.60;14.90;;;18.70;1.00;;;;;;4967849;28;20495;-75
2021/06/04 01:48:14;;;;;;;16.23;14.40;;;18.80;3.50;;;;;;4973194;28;20454;-75
2021/06/04 01:51:06;;;;;;;17.63;15.87;;;18.80;99.90;;;;;;4980187;28;20830;-75
2021/06/04 01:53:43;;;;;;;15.83;14.20;;;18.70;1.00;;;;;;4974165;28;20480;-75
2021/06/04 01:56:24;;;;;;;16.10;14.40;;;18.70;1.00;;;;;;4974244;28;20454;-74
2021/06/04 01:58:55;;;;;;;16.50;14.80;;;18.70;1.00;;;;;;4968602;28;20440;-75
2021/06/04 02:01:26;;;;;;;17.67;16.00;;;18.70;99.90;;;;;;4973053;28;20435;-75
2021/06/04 02:03:52;;;;;;;15.90;14.30;;;18.60;1.00;;;;;;4970892;28;20458;-75
2021/06/04 02:06:27;;;;;;;16.30;14.80;;;18.60;99.90;;;;;;4967833;28;20461;-74
2021/06/04 02:08:57;;;;;;;16.47;14.90;;;18.50;1.00;;;;;;4973601;28;20445;-75
2021/06/04 02:11:40;;;;;;;15.97;14.40;;;18.40;1.00;;;;;;4973025;28;20535;-75
2021/06/04 02:14:15;;;;;;;15.73;13.97;;;18.30;99.90;;;;;;4967257;28;20946;-75
2021/06/04 02:16:47;;;;;;;18.50;14.70;;;18.30;99.90;;;;;;4973161;28;20437;-75
2021/06/04 02:19:41;;;;;;;19.43;16.23;;;18.30;99.90;;;;;;4972077;28;22374;-75
2021/06/04 02:22:31;;;;;;;16.30;14.70;;;18.40;99.90;;;;;;5000828;28;20448;-75
2021/06/04 02:25:19;;;;;;;19.60;16.77;;;18.50;99.90;;;;;;4988715;28;20460;-75
2021/06/04 02:28:05;;;;;;;18.17;16.47;;;18.60;99.90;;;;;;4982813;28;20539;-75
2021/06/04 02:31:09;;;;;;;20.33;18.23;;;18.60;99.90;;;;;;4969410;28;20542;-75
2021/06/04 02:33:46;;;;;;;19.90;17.90;;;18.70;92.30;;;;;;4973368;28;20484;-75
2021/06/04 02:36:18;;;;;;;18.73;16.33;;;18.70;99.90;;;;;;4973463;28;21606;-75
2021/06/04 02:38:49;;;;;;;22.47;17.37;;;18.70;99.90;;;;;;4970398;28;20784;-75
2021/06/04 02:41:25;;;;;;;20.00;17.90;;;18.70;99.90;;;;;;4974382;28;20906;-75
2021/06/04 02:43:58;;;;;;;17.60;15.80;;;18.70;1.00;;;;;;4970503;28;20509;-75
2021/06/04 02:46:31;;;;;;;19.60;16.97;;;18.70;99.90;;;;;;4968798;28;20959;-77
2021/06/04 02:48:58;;;;;;;16.93;15.10;;;18.70;91.40;;;;;;4965823;28;20445;-73
2021/06/04 02:51:37;;;;;;;18.83;16.83;;;18.60;1.00;;;;;;4969956;28;20461;-74
2021/06/04 02:54:12;;;;;;;17.67;15.70;;;18.50;1.00;;;;;;4971847;28;20526;-74
2021/06/04 02:56:45;;;;;;;23.93;16.87;;;18.50;21.80;;;;;;4972071;28;20797;-74
2021/06/04 02:59:19;;;;;;;18.60;16.60;;;18.50;20.10;;;;;;4973590;28;20521;-74
2021/06/04 03:01:56;;;;;;;17.33;15.67;;;18.50;99.90;;;;;;4999677;28;21184;-74
2021/06/04 03:04:24;;;;;;;18.77;16.87;;;18.50;1.00;;;;;;4975694;28;20499;-74
2021/06/04 03:06:56;;;;;;;26.60;18.50;;;18.50;1.00;;;;;;4973357;28;20456;-75
2021/06/04 03:09:29;;;;;;;18.03;16.33;;;18.50;99.90;;;;;;4974956;28;20531;-76
2021/06/04 03:12:00;;;;;;;19.30;17.13;;;18.50;99.90;;;;;;4968133;28;20560;-75
2021/06/04 03:14:27;;;;;;;19.10;17.20;;;18.60;99.90;;;;;;4971460;28;20525;-75
2021/06/04 03:16:59;;;;;;;18.47;16.47;;;18.60;99.90;;;;;;4966880;28;20442;-75
2021/06/04 03:19:26;;;;;;;19.50;17.57;;;18.50;1.00;;;;;;4960078;28;20524;-75
2021/06/04 03:21:56;;;;;;;19.80;17.70;;;18.50;99.90;;;;;;4970479;28;21571;-75
2021/06/04 03:24:26;;;;;;;17.57;15.60;;;18.50;99.90;;;;;;4974782;28;20540;-75
2021/06/04 03:26:52;;;;;;;19.43;17.33;;;18.50;99.90;;;;;;4970875;28;20456;-75
2021/06/04 03:29:19;;;;;;;18.20;16.30;;;18.60;1.00;;;;;;4986478;28;20444;-76
2021/06/04 03:31:51;;;;;;;21.07;17.30;;;18.60;1.00;;;;;;4969655;28;20928;-77
2021/06/04 03:34:18;;;;;;;18.33;16.53;;;18.50;99.90;;;;;;4968712;28;20470;-75
2021/06/04 03:36:51;;;;;;;17.23;15.43;;;18.50;99.90;;;;;;4970234;28;20954;-75
2021/06/04 03:39:22;;;;;;;17.57;15.87;;;18.60;1.00;;;;;;4974024;28;21148;-75
2021/06/04 03:41:53;;;;;;;18.67;16.53;;;18.60;1.00;;;;;;4973739;28;20437;-75
2021/06/04 03:44:23;;;;;;;18.63;16.73;;;18.60;1.00;;;;;;4969922;28;20480;-75
2021/06/04 03:46:50;;;;;;;18.30;16.47;;;18.60;42.70;;;;;;4972034;28;20449;-75
2021/06/04 03:49:18;;;;;;;19.47;17.37;;;18.70;99.90;;;;;;4958987;28;20587;-76
2021/06/04 03:51:48;;;;;;;22.30;17.07;;;18.80;1.00;;;;;;4967751;28;20471;-75
2021/06/04 03:54:22;;;;;;;20.23;17.60;;;18.80;99.90;;;;;;4970869;28;20596;-74
2021/06/04 03:56:48;;;;;;;19.90;17.87;;;18.80;99.90;;;;;;4973559;28;20436;-76
2021/06/04 03:59:14;;;;;;;21.10;18.80;;;18.80;1.00;;;;;;4973129;28;20456;-76
2021/06/04 04:01:44;;;;;;;22.20;17.93;;;18.80;1.00;;;;;;4969098;28;21322;-76
2021/06/04 04:04:10;;;;;;;18.93;17.03;;;18.80;28.70;;;;;;4971695;28;20192;-76
2021/06/04 04:06:37;;;;;;;20.03;18.00;;;18.80;99.90;;;;;;4973170;28;20469;-76
2021/06/04 04:09:05;;;;;;;23.33;20.03;;;18.80;99.90;;;;;;4975269;28;21048;-76
2021/06/04 04:11:32;;;;;;;20.77;18.53;;;18.90;36.20;;;;;;4971359;28;20951;-76
2021/06/04 04:13:57;;;;;;;21.23;19.03;;;18.90;1.00;;;;;;5004883;28;20474;-76
2021/06/04 04:16:23;;;;;;;21.13;18.97;;;19.00;1.00;;;;;;4971266;28;20449;-76
2021/06/04 04:18:49;;;;;;;21.17;18.97;;;19.00;1.00;;;;;;4967340;28;20873;-76
2021/06/04 04:21:15;;;;;;;22.90;19.37;;;19.00;1.00;;;;;;4971786;28;20263;-76
2021/06/04 04:23:50;;;;;;;20.63;18.30;;;18.90;1.00;;;;;;4981215;28;20193;-76
2021/06/04 04:26:19;;;;;;;18.50;16.63;;;18.90;1.00;;;;;;4975538;28;20241;-76
2021/06/04 04:28:47;;;;;;;18.77;16.77;;;18.80;42.80;;;;;;5002687;28;20514;-76
2021/06/04 04:31:16;;;;;;;21.10;18.47;;;18.80;1.00;;;;;;4967215;28;20451;-75
2021/06/04 04:33:42;;;;;;;20.60;18.50;;;18.80;99.90;;;;;;4971873;28;20476;-75
2021/06/04 04:36:11;;;;;;;22.97;19.40;;;18.70;1.00;;;;;;4969562;28;20457;-75
2021/06/04 04:38:37;;;;;;;21.10;17.90;;;18.70;99.90;;;;;;4985927;28;20431;-75
2021/06/04 04:41:04;;;;;;;22.40;20.17;;;18.70;69.50;;;;;;4970981;28;20614;-75
2021/06/04 04:43:36;;;;;;;21.33;19.17;;;18.70;99.90;;;;;;4964994;28;20466;-75
2021/06/04 04:46:03;;;;;;;20.43;18.33;;;18.80;99.90;;;;;;4969594;28;20470;-75
2021/06/04 04:48:29;;;;;;;22.47;20.17;;;18.80;1.00;;;;;;4971724;28;21655;-75
2021/06/04 04:50:56;;;;;;;24.23;20.60;;;18.90;99.90;;;;;;4972446;28;20457;-75
2021/06/04 04:53:24;;;;;;;21.53;19.37;;;18.90;99.90;;;;;;4974366;28;20187;-75
2021/06/04 04:55:50;;;;;;;21.90;19.70;;;18.90;1.00;;;;;;4971288;28;20460;-75
2021/06/04 04:58:16;;;;;;;19.83;17.20;;;19.00;1.00;;;;;;4974241;28;20532;-75
2021/06/04 05:00:43;;;;;;;20.70;18.50;;;19.00;1.00;;;;;;4972189;28;20455;-75
2021/06/04 05:03:12;;;;;;;23.30;19.57;;;19.10;68.10;;;;;;4964244;28;20890;-75
2021/06/04 05:05:39;;;;;;;19.10;17.13;;;19.10;99.90;;;;;;4967538;28;20464;-75
2021/06/04 05:08:06;;;;;;;19.30;17.20;;;19.10;99.90;;;;;;4975971;28;20456;-75
2021/06/04 05:10:33;;;;;;;21.27;19.17;;;19.10;1.00;;;;;;4974117;28;21682;-75
2021/06/04 05:12:59;;;;;;;21.03;18.33;;;19.10;1.00;;;;;;4971836;28;20511;-76
2021/06/04 05:15:29;;;;;;;21.20;19.00;;;19.10;1.00;;;;;;4975417;28;20504;-76
2021/06/04 05:17:54;;;;;;;20.07;17.80;;;19.20;1.00;;;;;;4966801;28;20506;-75
2021/06/04 05:20:21;;;;;;;20.97;18.70;;;19.20;1.00;;;;;;4972870;28;20457;-75
2021/06/04 05:22:48;;;;;;;21.83;19.40;;;19.20;1.00;;;;;;4973443;28;20600;-75
2021/06/04 05:25:16;;;;;;;23.63;20.77;;;19.30;1.00;;;;;;4968301;28;20460;-75
2021/06/04 05:27:44;;;;;;;21.80;19.60;;;19.30;1.00;;;;;;4971240;28;20858;-75
2021/06/04 05:30:20;;;;;;;22.40;19.13;;;19.30;1.00;;;;;;4968002;28;20708;-76
2021/06/04 05:32:46;;;;;;;23.27;19.70;;;19.30;1.00;;;;;;4970838;28;20936;-75
2021/06/04 05:35:12;;;;;;;21.97;19.57;;;19.30;86.10;;;;;;4969640;28;20499;-75
2021/06/04 05:37:38;;;;;;;21.63;19.43;;;19.40;1.00;;;;;;4965878;28;20196;-76
2021/06/04 05:40:14;;;;;;;24.07;20.37;;;19.40;99.90;;;;;;4975323;28;20894;-75
2021/06/04 05:42:41;;;;;;;24.93;21.90;;;19.40;99.90;;;;;;4972509;28;20208;-75
2021/06/04 05:45:11;;;;;;;24.93;21.43;;;19.40;1.00;;;;;;4980914;28;20463;-75
2021/06/04 05:47:38;;;;;;;26.90;22.00;;;19.50;99.90;;;;;;4982112;28;20495;-76
2021/06/04 05:50:07;;;;;;;24.73;22.07;;;19.50;61.30;;;;;;4974414;28;20478;-75
2021/06/04 05:52:33;;;;;;;29.30;22.80;;;19.50;99.90;;;;;;4974313;28;20455;-75
2021/06/04 05:54:58;;;;;;;25.77;22.17;;;19.60;1.00;;;;;;4979764;28;21061;-76
2021/06/04 05:57:24;;;;;;;27.40;24.47;;;19.70;99.90;;;;;;4976729;28;20289;-75
2021/06/04 05:59:50;;;;;;;25.37;21.43;;;19.70;16.20;;;;;;4973949;28;20723;-76
2021/06/04 06:02:16;;;;;;;22.17;19.83;;;19.70;10.10;;;;;;4975288;28;20276;-76
2021/06/04 06:04:42;;;;;;;22.33;20.07;;;19.70;17.40;;;;;;4969628;28;20448;-76
2021/06/04 06:07:08;;;;;;;24.63;22.10;;;19.70;1.00;;;;;;4977244;28;20209;-76
2021/06/04 06:09:33;;;;;;;24.43;21.80;;;19.80;1.00;;;;;;4975998;28;20191;-76
2021/06/04 06:11:59;;;;;;;25.70;23.00;;;19.80;1.00;;;;;;4970516;28;20506;-76
2021/06/04 06:14:25;;;;;;;27.00;23.60;;;19.80;99.90;;;;;;4973383;28;20213;-76
2021/06/04 06:16:50;;;;;;;25.60;22.70;;;19.80;1.00;;;;;;4972429;28;20194;-76
2021/06/04 06:19:18;;;;;;;24.97;22.53;;;19.80;1.00;;;;;;4975655;28;20252;-75
2021/06/04 06:21:48;;;;;;;27.10;22.13;;;19.90;1.00;;;;;;4973781;28;20200;-76
2021/06/04 06:24:16;;;;;;;24.83;22.13;;;19.90;4.90;;;;;;4976219;28;20845;-76
2021/06/04 06:26:42;;;;;;;31.77;23.67;;;19.90;33.70;;;;;;4969471;28;20466;-76
2021/06/04 06:29:11;;;;;;;26.33;23.50;;;19.90;99.90;;;;;;4975908;28;20457;-76
2021/06/04 06:31:40;;;;;;;24.70;22.13;;;20.00;99.90;;;;;;4972413;28;20461;-76
2021/06/04 06:34:08;;;;;;;24.87;22.20;;;20.10;91.80;;;;;;4970556;28;20486;-76
2021/06/04 06:36:37;;;;;;;26.73;23.93;;;20.10;1.00;;;;;;4973161;28;20460;-76
2021/06/04 06:39:14;;;;;;;35.90;26.53;;;20.10;1.00;;;;;;4979082;28;22187;-76
2021/06/04 06:41:42;;;;;;;27.33;23.93;;;20.20;99.90;;;;;;4978016;28;20446;-76
2021/06/04 06:44:10;;;;;;;29.10;24.83;;;20.30;99.90;;;;;;4974899;28;20712;-76
2021/06/04 06:46:36;;;;;;;27.43;24.57;;;20.40;99.90;;;;;;4972949;28;20493;-76
2021/06/04 06:49:03;;;;;;;25.83;22.97;;;20.60;99.90;;;;;;4972461;28;20452;-76
2021/06/04 06:51:32;;;;;;;31.13;23.07;;;20.50;99.90;;;;;;4975994;28;20490;-76
2021/06/04 06:53:59;;;;;;;27.30;23.20;;;20.60;99.90;;;;;;4974223;28;20489;-76
2021/06/04 06:56:26;;;;;;;27.40;24.30;;;20.70;99.90;;;;;;4972377;28;21022;-76
2021/06/04 06:58:52;;;;;;;29.43;25.67;;;20.60;70.80;;;;;;4977871;28;20450;-76
2021/06/04 07:01:18;;;;;;;27.67;24.40;;;20.70;99.90;;;;;;4973522;28;20561;-76
2021/06/04 07:03:44;;;;;;;27.77;24.00;;;20.60;90.90;;;;;;4975623;28;21379;-76
2021/06/04 07:06:21;;;;;;;27.33;23.37;;;20.60;70.10;;;;;;4973831;28;20565;-76
2021/06/04 07:08:47;;;;;;;27.77;24.80;;;20.60;97.00;;;;;;4976753;28;20473;-76
2021/06/04 07:11:14;;;;;;;27.87;23.70;;;20.50;99.90;;;;;;4961734;28;20486;-76
2021/06/04 07:13:39;;;;;;;27.67;24.73;;;20.50;99.90;;;;;;4972487;28;20487;-76
2021/06/04 07:16:09;;;;;;;33.90;23.50;;;20.50;99.90;;;;;;4967438;28;20988;-76
2021/06/04 07:18:37;;;;;;;27.57;24.63;;;20.60;99.90;;;;;;4971345;28;20208;-76
2021/06/04 07:21:04;;;;;;;32.80;25.27;;;20.60;99.90;;;;;;4970802;28;20465;-76
2021/06/04 07:23:30;;;;;;;33.67;28.00;;;20.60;99.90;;;;;;4971216;28;20477;-76
2021/06/04 07:25:57;;;;;;;31.30;25.60;;;20.40;99.90;;;;;;4975910;28;20429;-76
2021/06/04 07:28:26;;;;;;;32.20;27.13;;;20.30;99.90;;;;;;4974543;28;20451;-76
2021/06/04 07:30:53;;;;;;;30.37;26.20;;;20.50;99.90;;;;;;4968042;28;20514;-76
2021/06/04 07:33:26;;;;;;;36.17;25.90;;;20.40;99.90;;;;;;4975292;28;20541;-76
2021/06/04 07:35:54;;;;;;;32.83;28.37;;;20.50;99.90;;;;;;4970978;28;20466;-76
2021/06/04 07:38:20;;;;;;;31.03;26.70;;;20.40;99.90;;;;;;4973162;28;20445;-76
2021/06/04 07:40:46;;;;;;;32.03;27.40;;;20.50;99.90;;;;;;4977482;28;20462;-75
2021/06/04 07:43:14;;;;;;;30.93;27.53;;;20.50;99.90;;;;;;4968787;28;20456;-76
2021/06/04 07:45:42;;;;;;;33.53;28.57;;;20.50;99.90;;;;;;4966087;28;20253;-76
2021/06/04 07:48:12;;;;;;;34.10;28.07;;;20.60;99.90;;;;;;4964969;28;20448;-76
2021/06/04 07:50:40;;;;;;;33.03;29.53;;;20.70;99.90;;;;;;4965717;28;20450;-75
2021/06/04 07:53:06;;;;;;;33.53;29.47;;;20.80;99.90;;;;;;4968818;28;20572;-76
2021/06/04 07:55:32;;;;;;;40.60;32.00;;;21.00;47.90;;;;;;4970642;28;20467;-76
2021/06/04 07:57:59;;;;;;;35.43;31.60;;;21.00;38.30;;;;;;4972125;28;20806;-76
2021/06/04 08:00:27;;;;;;;39.40;31.10;;;21.20;99.90;;;;;;4969821;28;20452;-76
2021/06/04 08:02:55;;;;;;;38.37;30.73;;;21.30;41.50;;;;;;4972445;28;20994;-76
2021/06/04 08:05:21;;;;;;;38.10;33.07;;;21.50;23.20;;;;;;4975676;28;20465;-75
2021/06/04 08:07:47;;;;;;;41.63;33.30;;;21.60;30.80;;;;;;4971957;28;22505;-76
2021/06/04 08:10:15;;;;;;;38.60;32.43;;;21.40;8.70;;;;;;4967563;28;20506;-76
2021/06/04 08:12:42;;;;;;;39.60;32.40;;;21.50;22.90;;;;;;4972106;28;20204;-76
2021/06/04 08:15:23;;;;;;;42.37;35.63;;;21.50;8.30;;;;;;4965232;28;20476;-76
2021/06/04 08:17:50;;;;;;;42.40;33.07;;;21.50;1.00;;;;;;4965491;28;20535;-76
2021/06/04 08:20:22;;;;;;;40.20;32.27;;;21.60;1.00;;;;;;4971087;28;20633;-76
2021/06/04 08:22:50;;;;;;;44.13;34.27;;;21.60;1.00;;;;;;4970010;28;20475;-77
2021/06/04 08:25:16;;;;;;;46.57;36.60;;;21.70;1.00;;;;;;4971465;28;20456;-76
2021/06/04 08:27:42;;;;;;;46.00;36.43;;;21.80;1.00;;;;;;4971179;28;20467;-76
2021/06/04 08:30:11;;;;;;;48.33;38.53;;;21.90;1.00;;;;;;4965995;28;20452;-76
2021/06/04 08:32:37;;;;;;;45.80;36.60;;;22.00;1.00;;;;;;4965058;28;20263;-76
2021/06/04 08:35:05;;;;;;;49.83;38.83;;;22.10;1.00;;;;;;4973380;28;20590;-76
2021/06/04 08:37:30;;;;;;;50.30;37.60;;;22.20;1.00;;;;;;4977679;28;20210;-77
2021/06/04 08:39:56;;;;;;;44.30;36.53;;;22.30;1.00;;;;;;4966761;28;22016;-76
2021/06/04 08:42:31;;;;;;;47.50;36.13;;;22.30;1.00;;;;;;4967165;28;20190;-76
2021/06/04 08:45:32;;;;;;;42.17;34.87;;;22.50;1.00;;;;;;4975005;28;20208;-76
2021/06/04 08:48:12;;;;;;;40.67;33.20;;;22.70;1.00;;;;;;4973763;28;20447;-77
2021/06/04 08:50:42;;;;;;;40.30;34.83;;;22.70;1.00;;;;;;4976761;28;20467;-76
2021/06/04 08:53:30;;;;;;;40.07;33.43;;;22.90;1.00;;;;;;4972132;28;20467;-76
2021/06/04 08:55:59;;;;;;;41.80;32.90;;;23.00;1.00;;;;;;4969308;28;20458;-76
2021/06/04 08:58:44;;;;;;;38.17;31.80;;;23.00;1.00;;;;;;4968878;28;20485;-76
2021/06/04 09:01:16;;;;;;;36.10;30.30;;;23.10;1.00;;;;;;4974956;28;21098;-76
2021/06/04 09:03:49;;;;;;;32.47;25.60;;;23.20;1.00;;;;;;4976196;28;20459;-76
2021/06/04 09:06:31;;;;;;;29.30;23.93;;;23.20;1.00;;;;;;4978950;28;20493;-76
2021/06/04 09:09:04;;;;;;;33.73;28.07;;;23.40;1.00;;;;;;4960535;28;20487;-77
2021/06/04 09:11:34;;;;;;;29.03;25.97;;;23.50;1.00;;;;;;4970904;28;20497;-77
2021/06/04 09:13:59;;;;;;;29.30;23.40;;;23.60;1.00;;;;;;4977050;28;20517;-76
2021/06/04 09:17:08;;;;;;;27.57;24.37;;;23.70;1.00;;;;;;4966648;28;20876;-76
2021/06/04 09:19:53;;;;;;;31.90;23.57;;;24.00;1.00;;;;;;4952821;28;20259;-76
2021/06/04 09:22:19;;;;;;;27.90;24.43;;;24.10;1.00;;;;;;4971681;28;20463;-77
2021/06/04 09:24:49;;;;;;;25.47;21.87;;;24.10;1.00;;;;;;4972783;28;20544;-77
2021/06/04 09:27:34;;;;;;;27.37;24.50;;;24.20;1.00;;;;;;4967137;28;20449;-76
2021/06/04 09:30:09;;;;;;;37.10;27.47;;;23.90;1.00;;;;;;4967149;28;20461;-76
2021/06/04 09:32:35;;;;;;;30.03;24.70;;;23.70;1.00;;;;;;4971466;28;20819;-76
2021/06/04 09:35:10;;;;;;;29.70;26.60;;;23.60;1.00;;;;;;4978760;28;20484;-77
2021/06/04 09:37:38;;;;;;;30.97;25.80;;;23.50;1.00;;;;;;4969239;28;20463;-77
2021/06/04 09:40:12;;;;;;;28.23;25.23;;;23.50;1.00;;;;;;4960876;28;20464;-76
2021/06/04 09:42:55;;;;;;;30.20;24.10;;;23.40;1.00;;;;;;4972704;28;20443;-76
2021/06/04 09:45:27;;;;;;;35.20;30.60;;;23.40;1.00;;;;;;4972335;28;20483;-76
2021/06/04 09:48:10;;;;;;;34.33;30.73;;;23.50;1.00;;;;;;4967747;28;20469;-76
2021/06/04 09:50:47;;;;;;;27.37;24.47;;;23.80;1.00;;;;;;5002260;28;20444;-76
2021/06/04 09:53:24;;;;;;;34.73;26.03;;;24.10;1.00;;;;;;4981560;28;20812;-77
2021/06/04 09:56:15;;;;;;;31.03;26.90;;;24.30;1.00;;;;;;4970112;28;20444;-76
2021/06/04 09:58:54;;;;;;;29.90;23.77;;;24.30;1.00;;;;;;4992492;28;20487;-77
2021/06/04 10:01:23;;;;;;;36.23;30.00;;;24.40;1.00;;;;;;4970524;28;20444;-77
2021/06/04 10:03:57;;;;;;;31.47;28.23;;;24.40;1.00;;;;;;4976357;28;20484;-76
2021/06/04 10:06:40;;;;;;;29.33;26.30;;;24.40;1.00;;;;;;4968843;28;20487;-77
2021/06/04 10:09:33;;;;;;;30.50;27.30;;;24.30;1.00;;;;;;4967828;28;20480;-76
2021/06/04 10:12:08;;;;;;;29.33;24.90;;;24.50;1.00;;;;;;4971807;28;20804;-77
2021/06/04 10:20:30;;;;;;;33.90;28.77;;;24.20;1.00;;;;;;4978892;28;20998;-76
2021/06/04 10:23:10;;;;;;;32.50;27.17;;;24.10;1.00;;;;;;4977508;28;20469;-76
2021/06/04 10:25:46;;;;;;;30.60;27.20;;;24.20;1.00;;;;;;4976141;28;20456;-76
2021/06/04 10:28:40;;;;;;;35.20;25.77;;;24.40;1.00;;;;;;4979168;28;20789;-76
2021/06/04 10:31:21;;;;;;;30.37;26.97;;;24.30;1.00;;;;;;4975845;28;20457;-76
2021/06/04 10:34:17;;;;;;;26.40;23.70;;;24.40;1.00;;;;;;4974033;28;20732;-76
2021/06/04 10:36:46;;;;;;;27.00;24.20;;;24.40;1.00;;;;;;4975800;28;20459;-76
2021/06/04 10:39:30;;;;;;;22.97;20.57;;;24.40;1.00;;;;;;4970463;28;20454;-76
2021/06/04 10:42:25;;;;;;;27.30;24.60;;;24.50;1.00;;;;;;4975276;28;20456;-77
2021/06/04 10:44:53;;;;;;;27.90;25.00;;;24.40;1.00;;;;;;4974204;28;20850;-77
2021/06/04 10:47:40;;;;;;;27.13;24.23;;;24.50;1.00;;;;;;4972452;28;20456;-77
2021/06/04 10:50:15;;;;;;;25.80;22.77;;;24.60;1.00;;;;;;4975029;28;20482;-76
2021/06/04 10:53:07;;;;;;;26.77;24.07;;;24.70;1.00;;;;;;4982220;28;20463;-77
2021/06/04 10:55:39;;;;;;;27.23;24.07;;;24.80;1.00;;;;;;4975748;28;20484;-77
2021/06/04 10:58:23;;;;;;;26.40;22.60;;;24.90;1.00;;;;;;4971309;28;20460;-76
2021/06/04 11:01:00;;;;;;;25.03;22.37;;;25.00;1.00;;;;;;4977003;28;20481;-77
2021/06/04 11:03:36;;;;;;;26.23;23.60;;;25.20;1.00;;;;;;4971074;28;20519;-76
2021/06/04 11:06:27;;;;;;;30.10;24.27;;;25.20;1.00;;;;;;4974424;28;20862;-76
2021/06/04 11:09:24;;;;;;;25.10;22.47;;;25.30;1.00;;;;;;4973641;28;20475;-76
2021/06/04 11:12:36;;;;;;;23.03;20.80;;;25.40;1.00;;;;;;4978102;28;20459;-77
2021/06/04 11:15:06;;;;;;;25.67;22.97;;;25.40;1.00;;;;;;4961034;28;20484;-76
2021/06/04 11:17:37;;;;;;;24.30;21.50;;;25.30;1.00;;;;;;4963623;28;20518;-77
2021/06/04 11:20:26;;;;;;;22.97;20.67;;;25.20;1.00;;;;;;4971163;28;20954;-76
2021/06/04 11:23:13;;;;;;;24.97;20.83;;;25.30;1.00;;;;;;4966467;28;20465;-76
2021/06/04 11:25:53;;;;;;;21.60;17.83;;;25.50;1.00;;;;;;4966248;28;20459;-76
2021/06/04 11:28:25;;;;;;;20.10;17.90;;;25.50;1.00;;;;;;4967790;28;20456;-76
2021/06/04 11:30:53;;;;;;;21.03;17.10;;;25.50;1.00;;;;;;4966503;28;20437;-76
2021/06/04 11:33:33;;;;;;;19.00;17.10;;;25.70;1.00;;;;;;4984553;28;20546;-76
2021/06/04 11:36:08;;;;;;;21.50;16.70;;;25.80;1.00;;;;;;4969125;28;20460;-75
2021/06/04 11:38:44;;;;;;;21.30;18.30;;;26.00;1.00;;;;;;4969938;28;20460;-74
2021/06/04 11:41:12;;;;;;;19.53;17.00;;;26.10;1.00;;;;;;4968658;28;20635;-74
2021/06/04 11:43:43;;;;;;;22.87;18.83;;;26.30;1.00;;;;;;4972611;28;20544;-74
2021/06/04 11:46:23;;;;;;;23.70;20.10;;;26.30;1.00;;;;;;4967975;28;20460;-75
2021/06/04 11:49:11;;;;;;;22.60;19.57;;;26.30;1.00;;;;;;4970741;28;20456;-76
2021/06/04 11:51:41;;;;;;;25.07;20.57;;;26.10;1.00;;;;;;4970594;28;20926;-75
2021/06/04 11:54:26;;;;;;;25.00;22.43;;;26.00;1.00;;;;;;4965870;28;20534;-75
2021/06/04 11:57:07;;;;;;;23.67;21.17;;;26.10;1.00;;;;;;4972045;28;20942;-75
2021/06/04 11:59:53;;;;;;;22.53;20.23;;;26.20;1.00;;;;;;4960864;28;20444;-75
2021/06/04 12:02:30;;;;;;;29.33;20.07;;;26.20;1.00;;;;;;4969755;28;20589;-74
2021/06/04 12:05:24;;;;;;;24.37;21.63;;;26.30;1.00;;;;;;4966414;28;20941;-75
2021/06/04 12:08:11;;;;;;;25.80;21.27;;;26.20;1.00;;;;;;4968284;28;20485;-75
2021/06/04 12:10:46;;;;;;;22.47;20.07;;;26.20;1.00;;;;;;4965253;28;20513;-75
2021/06/04 12:13:30;;;;;;;23.83;20.37;;;26.20;1.00;;;;;;4973831;28;20539;-75
2021/06/04 12:16:22;;;;;;;22.30;19.77;;;26.20;1.00;;;;;;4971248;28;20453;-75
2021/06/04 12:19:06;;;;;;;22.83;19.27;;;26.20;1.00;;;;;;4968984;28;20907;-75
2021/06/04 12:21:41;;;;;;;21.03;18.80;;;26.40;1.00;;;;;;4970900;28;20440;-75
2021/06/04 12:24:14;;;;;;;21.63;19.43;;;26.50;1.00;;;;;;4970568;28;20455;-75
2021/06/04 12:26:44;;;;;;;21.87;18.77;;;26.50;1.00;;;;;;4970129;28;20488;-75
2021/06/04 12:29:22;;;;;;;22.13;19.80;;;26.50;1.00;;;;;;4970885;28;20456;-75
2021/06/04 12:31:48;;;;;;;23.70;18.20;;;26.60;1.00;;;;;;4968774;28;20487;-75
2021/06/04 12:34:34;;;;;;;25.93;19.73;;;26.50;1.00;;;;;;4968145;28;20640;-75
2021/06/04 12:37:18;;;;;;;22.87;17.37;;;26.50;1.00;;;;;;4967129;28;20468;-75
2021/06/04 12:39:56;;;;;;;21.03;17.50;;;26.40;1.00;;;;;;4966950;28;20458;-75
2021/06/04 12:42:24;;;;;;;20.00;16.80;;;26.60;1.00;;;;;;4967120;28;20548;-75
2021/06/04 12:45:05;;;;;;;19.47;17.33;;;26.70;1.00;;;;;;4968602;28;20465;-75
2021/06/04 12:47:39;;;;;;;20.47;16.40;;;26.80;1.00;;;;;;4957725;28;20602;-75
2021/06/04 12:50:23;;;;;;;18.10;15.70;;;26.70;1.00;;;;;;4961971;28;20448;-75
2021/06/04 12:52:50;;;;;;;17.77;15.00;;;26.60;1.00;;;;;;4964606;28;21046;-75
2021/06/04 12:55:30;;;;;;;19.43;17.43;;;26.60;1.00;;;;;;4957033;28;20537;-75
2021/06/04 12:58:29;;;;;;;18.43;15.87;;;26.70;1.00;;;;;;4971406;28;20544;-75
2021/06/04 13:01:12;;;;;;;16.97;15.07;;;26.70;1.00;;;;;;4970230;28;20445;-75
2021/06/04 13:03:48;;;;;;;20.10;15.20;;;26.80;1.00;;;;;;4968087;28;20452;-75
2021/06/04 13:06:21;;;;;;;21.40;17.37;;;26.80;1.00;;;;;;4966510;28;20460;-75
2021/06/04 13:08:48;;;;;;;23.60;17.13;;;26.80;1.00;;;;;;4975527;28;20471;-75